РУС

ENG

 
  Pireps - S7
 

Рейс CTU1217

  • Выполнял: Sergey Radchenko
  • Аэропорт отправления: Gumrak airport Volgograd (URWW)
  • Аэропорт назначения: (UWLL)
  • Тип ВС: B737-800 (VQ-BVL--)
  • Время полёта: 01.22
  • Дата полёта: 12.05.2022
  • Маршрут: RODU1E RODUN R807 UROBO P135 DAFOS T789 NEPNI NEPN1E
  • Статус: Одобрен

Детали полёта
Gross Revenue:
(138 load / $ 320.00 per unit
$ 44, 160.00
Fuel Cost:
(3105 fuel used @ 5.1 / unit)
$ 15, 835.50


Дополнительная информация о полёте:

Лог

Aircraft Used in flight is PMDG 737-700BBJ TY Air (N888TY | 2005)
22:30 Boarding
22:30 Navigation Lights ON at 470 AGL
22:30 Brakes are On
22:37 Beacon Lights ON at 470 AGL
22:37 Engine 2 Started
22:39 Engine 1 Started
22:41 Taxi Lights ON at 470 AGL
22:41Flaps 1 Selected at 470ft and 0kts
22:42 Brakes are Released
22:42Flaps 2 Selected at 470ft and 0kts
22:42Flaps 3 Selected at 470ft and 0kts
22:44 Landing Lights ON at 480 AGL
22:44 Strobe Lights ON at 480 AGL
22:45 You Took off @ 149 Knots and Flaps at Position 3
Departure Weather
URWW 121900Z 23006MPS CAVOK 13/04 Q1013 R24/010070 TEMPO -TSRA BKN030CB
22:45 Paused
22:45 Unpaused
22:45 Landing Gear Up @ 176 Knots and 650 Feet
22:45 Taxi Lights OFF at 690 AGL
22:45Flaps 4 Selected at 1570ft and 195kts
22:45Flaps 3 Selected at 1870ft and 193kts
22:46Flaps 2 Selected at 2310ft and 186kts
22:47Flaps 1 Selected at 6130ft and 183kts
22:47Flaps Retracted at 6330ft and 194kts
22:47 Landing Lights OFF at 6930 AGL
23:43 Landing Lights ON at 6790 AGL
23:44Flaps 1 Selected at 6260ft and 236kts
23:45Flaps 2 Selected at 5760ft and 188kts
23:47Flaps 3 Selected at 3720ft and 174kts
23:47Flaps 4 Selected at 3440ft and 160kts
23:47 Landing Gear Down @ 159 Knots and 3430 Feet
23:47Flaps 5 Selected at 3420ft and 158kts
23:47 Taxi Lights ON at 3420 AGL
23:48Flaps 6 Selected at 3390ft and 154kts
23:48Flaps 7 Selected at 3380ft and 148kts
23:48Flaps 8 Selected at 3360ft and 145kts
23:53 You Landed @ 133 Knots and with -100 Vertical Speed
Arrival Weather
UWLL 121900Z 27004MPS CAVOK 07/06 Q1006 R20/250150 NOSIG RMK QFE744/0992
23:53 Paused
23:53 Unpaused
23:54 Brakes are On
Pirep logged with S7 Tracking 1.0.0.14



Общая оценка полета : 100%




Route Map



 
 
   
 
Новости

29.12.2021 - C Новым годом

Дорогие друзья, поздравляю вас с Наступающим Новым годом!
Желаем успехов, приятных взлетов и мягких посадок!

   
 
Авторизация






Регистрация

Восстановить пароль?

Мы в соц. сетях

      



   
 





   
 


   
 


Яндекс.Метрика

www.va-s7.ru 2011-2021
Все права защищены.



Минуточку внимания!
Сайт va-s7.ru не является коммерческим проектом. Мы не имеем отношения к торговым маркам "S7" и "Globus" и их представителям.
Эмблемы на сайте являются собственностью соответствующих компаний.

аэронавигационная метеорологическая и любая другая информация с данного ресурса ни в коем случае не должна использоваться для реальных полетов